Vernon, Oklahoma
Current Conditions -  °F | °C
As of 7:02 AM on Saturday 20 Dec 2014 (Local Time) from KMLC Reporting Station
Haze Haze  
Wind Chill:   Ceiling: 500
Heat Index:   Visibility: 4mi
Dew Point:   Wind: 5mph
Humidity: 89%   Direction: 10°N
Pressure: 30.25"   Gusts: NA
Location:  35.2158°N, 95.8817°W
Report Text: KMLC 201302Z AUTO 01004KT 4SM BR OVC005 06/04 A3025 RMK AO2 T00560039
Loading
Personal Weather Stations






























Interactive Weather Map New forecast layout! Learn more

10-Day Weather Forecast

Advertisements
Track Severe Weather on mobile